createdAt,value
2018-09-22T00:00:24.836Z,1009.57
2018-09-22T00:01:24.862Z,1009.53
2018-09-22T00:02:24.887Z,1009.55
2018-09-22T00:03:24.907Z,1009.53
2018-09-22T00:04:24.931Z,1009.54
2018-09-22T00:05:24.955Z,1009.51
2018-09-22T00:06:24.978Z,1009.53
2018-09-22T00:07:25.003Z,1009.50
2018-09-22T00:08:25.028Z,1009.52
2018-09-22T00:09:25.050Z,1009.51
2018-09-22T00:10:25.074Z,1009.53
2018-09-22T00:11:25.097Z,1009.58
2018-09-22T00:12:25.123Z,1009.53
2018-09-22T00:13:25.146Z,1009.55
2018-09-22T00:14:25.170Z,1009.53
2018-09-22T00:15:25.193Z,1009.54
2018-09-22T00:16:25.217Z,1009.62
2018-09-22T00:17:25.240Z,1009.63
2018-09-22T00:18:25.265Z,1009.62
2018-09-22T00:19:25.288Z,1009.62
2018-09-22T00:20:25.314Z,1009.65
2018-09-22T00:21:25.336Z,1009.69
2018-09-22T00:22:25.358Z,1009.63
2018-09-22T00:23:25.384Z,1009.65
2018-09-22T00:24:25.411Z,1009.72
2018-09-22T00:25:25.431Z,1009.67
2018-09-22T00:26:25.454Z,1009.73
2018-09-22T00:27:25.478Z,1009.72
2018-09-22T00:28:25.503Z,1009.70
2018-09-22T00:29:25.528Z,1009.76
2018-09-22T00:30:25.548Z,1009.78
2018-09-22T00:31:25.573Z,1009.80
2018-09-22T00:32:25.597Z,1009.80
2018-09-22T00:33:25.623Z,1009.79
2018-09-22T00:34:25.644Z,1009.90
2018-09-22T00:35:25.670Z,1009.85
2018-09-22T00:36:25.691Z,1009.87
2018-09-22T00:37:25.716Z,1009.90
2018-09-22T00:38:25.738Z,1009.92
2018-09-22T00:39:25.762Z,1009.94
2018-09-22T00:40:25.786Z,1009.94
2018-09-22T00:41:25.812Z,1009.97
2018-09-22T00:42:25.832Z,1010.01
2018-09-22T00:43:25.858Z,1010.02
2018-09-22T00:44:25.883Z,1010.03
2018-09-22T00:45:25.906Z,1009.99
2018-09-22T00:46:25.929Z,1010.02
2018-09-22T00:47:25.956Z,1010.05
2018-09-22T00:48:25.976Z,1010.04
2018-09-22T00:49:26.001Z,1010.04
2018-09-22T00:50:26.024Z,1010.01
2018-09-22T00:51:26.049Z,1010.16
2018-09-22T00:52:26.072Z,1010.16
2018-09-22T00:53:26.096Z,1010.13
2018-09-22T00:54:26.118Z,1010.24
2018-09-22T00:55:26.144Z,1010.23
2018-09-22T00:56:26.167Z,1010.19
2018-09-22T00:57:26.194Z,1010.25
2018-09-22T00:58:26.215Z,1010.22
2018-09-22T00:59:26.240Z,1010.28
2018-09-22T01:00:26.262Z,1010.25
2018-09-22T01:01:26.287Z,1010.29
2018-09-22T01:02:26.312Z,1010.33
2018-09-22T01:03:26.333Z,1010.31
2018-09-22T01:04:26.358Z,1010.28
2018-09-22T01:05:26.391Z,1010.36
2018-09-22T01:06:26.404Z,1010.37
2018-09-22T01:07:26.429Z,1010.43
2018-09-22T01:08:26.452Z,1010.47
2018-09-22T01:09:26.476Z,1010.41
2018-09-22T01:10:26.499Z,1010.46
2018-09-22T01:11:26.524Z,1010.53
2018-09-22T01:12:26.548Z,1010.53
2018-09-22T01:13:26.571Z,1010.59
2018-09-22T01:14:26.595Z,1010.54
2018-09-22T01:15:26.631Z,1010.44
2018-09-22T01:16:26.643Z,1010.45
2018-09-22T01:17:26.668Z,1010.40
2018-09-22T01:18:26.690Z,1010.47
2018-09-22T01:19:26.713Z,1010.38
2018-09-22T01:20:26.744Z,1010.37
2018-09-22T01:21:26.768Z,1010.38
2018-09-22T01:22:26.785Z,1010.39
2018-09-22T01:23:26.809Z,1010.40
2018-09-22T01:24:26.835Z,1010.44
2018-09-22T01:25:26.856Z,1010.46
2018-09-22T01:26:26.880Z,1010.47
2018-09-22T01:27:26.907Z,1010.51
2018-09-22T01:28:26.930Z,1010.56
2018-09-22T01:29:26.952Z,1010.60
2018-09-22T01:30:26.977Z,1010.56
2018-09-22T01:31:26.998Z,1010.61
2018-09-22T01:32:27.023Z,1010.63
2018-09-22T01:33:27.048Z,1010.72
2018-09-22T01:34:27.073Z,1010.67
2018-09-22T01:35:27.093Z,1010.75
2018-09-22T01:36:27.122Z,1010.73
2018-09-22T01:37:27.142Z,1010.71
2018-09-22T01:38:27.165Z,1010.72
2018-09-22T01:39:27.192Z,1010.72
2018-09-22T01:40:27.214Z,1010.76
2018-09-22T01:41:27.236Z,1010.78
2018-09-22T01:42:27.260Z,1010.79
2018-09-22T01:43:27.284Z,1010.80
2018-09-22T01:44:27.308Z,1010.84
2018-09-22T01:45:27.338Z,1010.92
2018-09-22T01:46:27.355Z,1010.89
2018-09-22T01:47:27.378Z,1010.96
2018-09-22T01:48:27.403Z,1010.99
2018-09-22T01:49:27.424Z,1010.98
2018-09-22T01:50:27.450Z,1011.00
2018-09-22T01:51:27.475Z,1011.00
2018-09-22T01:52:27.562Z,1011.05
2018-09-22T01:53:27.525Z,1011.02
2018-09-22T01:54:27.551Z,1011.02
2018-09-22T01:55:27.572Z,1011.10
2018-09-22T01:56:27.594Z,1011.07
2018-09-22T01:57:27.621Z,1011.11
2018-09-22T01:58:27.640Z,1011.09
2018-09-22T01:59:27.666Z,1011.09
2018-09-22T02:00:27.689Z,1011.08
2018-09-22T02:01:27.712Z,1011.16
2018-09-22T02:02:27.736Z,1011.17
2018-09-22T02:03:27.764Z,1011.19
2018-09-22T02:04:27.789Z,1011.21
2018-09-22T02:05:27.808Z,1011.24
2018-09-22T02:06:27.831Z,1011.29
2018-09-22T02:07:27.854Z,1011.30
2018-09-22T02:08:27.878Z,1011.29
2018-09-22T02:09:27.903Z,1011.30
2018-09-22T02:10:27.931Z,1011.35
2018-09-22T02:11:27.956Z,1011.32
2018-09-22T02:12:27.973Z,1011.31
2018-09-22T02:13:28.000Z,1011.35
2018-09-22T02:14:28.024Z,1011.41
2018-09-22T02:15:28.046Z,1011.41
2018-09-22T02:16:28.069Z,1011.41
2018-09-22T02:17:28.093Z,1011.39
2018-09-22T02:18:28.116Z,1011.44
2018-09-22T02:19:28.138Z,1011.44
2018-09-22T02:20:28.166Z,1011.45
2018-09-22T02:21:28.189Z,1011.46
2018-09-22T02:22:28.212Z,1011.46
2018-09-22T02:23:28.237Z,1011.47
2018-09-22T02:24:28.261Z,1011.44
2018-09-22T02:25:28.283Z,1011.47
2018-09-22T02:26:28.309Z,1011.50
2018-09-22T02:27:28.332Z,1011.53
2018-09-22T02:28:28.354Z,1011.51
2018-09-22T02:29:28.378Z,1011.58
2018-09-22T02:30:28.401Z,1011.51
2018-09-22T02:31:28.425Z,1011.48
2018-09-22T02:32:28.449Z,1011.52
2018-09-22T02:33:28.477Z,1011.53
2018-09-22T02:34:28.496Z,1011.55
2018-09-22T02:35:28.578Z,1011.58
2018-09-22T02:36:28.544Z,1011.60
2018-09-22T02:37:28.569Z,1011.59
2018-09-22T02:38:28.591Z,1011.57
2018-09-22T02:39:28.618Z,1011.61
2018-09-22T02:40:28.640Z,1011.64
2018-09-22T02:41:28.665Z,1011.62
2018-09-22T02:42:28.686Z,1011.62
2018-09-22T02:43:28.710Z,1011.64
2018-09-22T02:44:28.737Z,1011.71
2018-09-22T02:45:28.759Z,1011.72
2018-09-22T02:46:28.781Z,1011.79
2018-09-22T02:47:28.805Z,1011.76
2018-09-22T02:48:28.829Z,1011.81
2018-09-22T02:49:28.852Z,1011.80
2018-09-22T02:50:28.881Z,1011.83
2018-09-22T02:51:28.902Z,1011.87
2018-09-22T02:52:28.924Z,1011.93
2018-09-22T02:53:28.952Z,1011.82
2018-09-22T02:54:28.971Z,1011.88
2018-09-22T02:55:28.995Z,1011.87
2018-09-22T02:56:29.019Z,1011.87
2018-09-22T02:57:29.045Z,1011.87
2018-09-22T02:58:29.067Z,1011.89
2018-09-22T02:59:29.090Z,1011.91
2018-09-22T03:00:29.115Z,1011.99
2018-09-22T03:01:29.141Z,1012.05
2018-09-22T03:02:29.161Z,1012.09
2018-09-22T03:03:29.186Z,1012.14
2018-09-22T03:04:29.209Z,1012.11
2018-09-22T03:05:29.234Z,1012.12
2018-09-22T03:06:29.257Z,1012.16
2018-09-22T03:07:29.283Z,1012.18
2018-09-22T03:08:29.305Z,1012.19
2018-09-22T03:09:29.338Z,1012.19
2018-09-22T03:10:29.354Z,1012.16
2018-09-22T03:11:29.376Z,1012.18
2018-09-22T03:12:29.399Z,1012.20
2018-09-22T03:13:29.423Z,1012.22
2018-09-22T03:14:29.447Z,1012.22
2018-09-22T03:15:29.478Z,1012.22
2018-09-22T03:16:29.495Z,1012.25
2018-09-22T03:17:29.519Z,1012.29
2018-09-22T03:18:29.544Z,1012.30
2018-09-22T03:19:29.566Z,1012.29
2018-09-22T03:20:29.590Z,1012.30
2018-09-22T03:21:29.614Z,1012.25
2018-09-22T03:22:29.637Z,1012.30
2018-09-22T03:23:29.660Z,1012.28
2018-09-22T03:24:29.684Z,1012.30
2018-09-22T03:25:29.708Z,1012.32
2018-09-22T03:26:29.737Z,1012.44
2018-09-22T03:27:29.756Z,1012.39
2018-09-22T03:28:29.779Z,1012.40
2018-09-22T03:29:29.803Z,1012.42
2018-09-22T03:30:29.845Z,1012.47
2018-09-22T03:31:29.855Z,1012.44
2018-09-22T03:32:29.884Z,1012.42
2018-09-22T03:33:29.899Z,1012.45
2018-09-22T03:34:29.924Z,1012.45
2018-09-22T03:35:29.946Z,1012.47
2018-09-22T03:36:29.972Z,1012.48
2018-09-22T03:37:29.997Z,1012.53
2018-09-22T03:38:30.017Z,1012.54
2018-09-22T03:39:30.041Z,1012.55
2018-09-22T03:40:30.064Z,1012.54
2018-09-22T03:41:30.090Z,1012.57
2018-09-22T03:42:30.112Z,1012.55
2018-09-22T03:43:30.137Z,1012.59
2018-09-22T03:44:30.160Z,1012.62
2018-09-22T03:45:30.184Z,1012.61
2018-09-22T03:46:30.210Z,1012.59
2018-09-22T03:47:30.232Z,1012.61
2018-09-22T03:48:30.254Z,1012.64
2018-09-22T03:49:30.280Z,1012.65
2018-09-22T03:50:30.301Z,1012.67
2018-09-22T03:51:30.326Z,1012.61
2018-09-22T03:52:30.358Z,1012.64
2018-09-22T03:53:30.374Z,1012.63
2018-09-22T03:54:30.396Z,1012.66
2018-09-22T03:55:30.423Z,1012.64
2018-09-22T03:56:30.445Z,1012.66
2018-09-22T03:57:30.468Z,1012.69
2018-09-22T03:58:30.494Z,1012.63
2018-09-22T03:59:30.515Z,1012.69
2018-09-22T04:00:30.542Z,1012.70
2018-09-22T04:01:30.564Z,1012.69
2018-09-22T04:02:30.586Z,1012.74
2018-09-22T04:03:30.611Z,1012.75
2018-09-22T04:04:30.637Z,1012.81
2018-09-22T04:05:30.659Z,1012.81
2018-09-22T04:06:30.681Z,1012.89
2018-09-22T04:07:30.705Z,1012.88
2018-09-22T04:08:30.729Z,1012.92
2018-09-22T04:09:30.754Z,1012.96
2018-09-22T04:10:30.779Z,1012.90
2018-09-22T04:11:30.801Z,1012.89
2018-09-22T04:12:30.824Z,1012.93
2018-09-22T04:13:30.848Z,1012.90
2018-09-22T04:14:30.873Z,1012.95
2018-09-22T04:15:30.896Z,1012.90
2018-09-22T04:16:30.919Z,1012.89
2018-09-22T04:17:30.943Z,1012.91
2018-09-22T04:18:30.968Z,1012.91
2018-09-22T04:19:30.995Z,1012.88
2018-09-22T04:20:31.020Z,1012.90
2018-09-22T04:21:31.038Z,1012.84
2018-09-22T04:22:31.062Z,1012.85
2018-09-22T04:23:31.090Z,1012.84
2018-09-22T04:24:31.109Z,1012.83
2018-09-22T04:25:31.133Z,1012.85
2018-09-22T04:26:31.158Z,1012.87
2018-09-22T04:27:31.180Z,1012.94
2018-09-22T04:28:31.206Z,1012.90
2018-09-22T04:29:31.229Z,1012.91
2018-09-22T04:30:31.251Z,1012.92
2018-09-22T04:31:31.277Z,1012.97
2018-09-22T04:32:31.300Z,1012.92
2018-09-22T04:33:31.382Z,1012.95
2018-09-22T04:34:31.348Z,1012.96
2018-09-22T04:35:31.371Z,1012.96
2018-09-22T04:36:31.396Z,1013.04
2018-09-22T04:37:31.419Z,1013.05
2018-09-22T04:38:31.441Z,1013.01
2018-09-22T04:39:31.468Z,1013.06
2018-09-22T04:40:31.490Z,1013.03
2018-09-22T04:41:31.522Z,1013.07
2018-09-22T04:42:31.537Z,1013.05
2018-09-22T04:43:31.561Z,1013.08
2018-09-22T04:44:31.585Z,1013.07
2018-09-22T04:45:31.608Z,1013.06
2018-09-22T04:46:31.633Z,1013.10
2018-09-22T04:47:31.656Z,1013.14
2018-09-22T04:48:31.680Z,1013.13
2018-09-22T04:49:31.704Z,1013.01
2018-09-22T04:50:31.728Z,1013.08
2018-09-22T04:51:31.751Z,1013.07
2018-09-22T04:52:31.776Z,1013.16
2018-09-22T04:53:31.799Z,1013.16
2018-09-22T04:54:31.823Z,1013.15
2018-09-22T04:55:31.847Z,1013.19
2018-09-22T04:56:31.871Z,1013.16
2018-09-22T04:57:31.895Z,1013.19
2018-09-22T04:58:31.919Z,1013.19
2018-09-22T04:59:31.945Z,1013.21
2018-09-22T05:00:31.969Z,1013.17
2018-09-22T05:01:31.993Z,1013.17
2018-09-22T05:02:32.014Z,1013.22
2018-09-22T05:03:32.036Z,1013.24
2018-09-22T05:04:32.067Z,1013.24
2018-09-22T05:05:32.088Z,1013.30
2018-09-22T05:06:32.108Z,1013.23
2018-09-22T05:07:32.133Z,1013.27
2018-09-22T05:08:32.157Z,1013.29
2018-09-22T05:09:32.180Z,1013.32
2018-09-22T05:10:32.205Z,1013.36
2018-09-22T05:11:32.227Z,1013.37
2018-09-22T05:12:32.252Z,1013.33
2018-09-22T05:13:32.276Z,1013.35
2018-09-22T05:14:32.301Z,1013.37
2018-09-22T05:15:32.361Z,1013.37
2018-09-22T05:16:32.349Z,1013.41
2018-09-22T05:17:32.372Z,1013.40
2018-09-22T05:18:32.394Z,1013.44
2018-09-22T05:19:32.418Z,1013.47
2018-09-22T05:20:32.442Z,1013.51
2018-09-22T05:21:32.466Z,1013.57
2018-09-22T05:22:32.494Z,1013.56
2018-09-22T05:23:32.515Z,1013.62
2018-09-22T05:24:32.539Z,1013.55
2018-09-22T05:25:32.562Z,1013.61
2018-09-22T05:26:32.585Z,1013.58
2018-09-22T05:27:32.609Z,1013.60
2018-09-22T05:28:32.635Z,1013.64
2018-09-22T05:29:32.661Z,1013.65
2018-09-22T05:30:32.684Z,1013.66
2018-09-22T05:31:32.708Z,1013.61
2018-09-22T05:32:32.729Z,1013.67
2018-09-22T05:33:32.841Z,1013.67
2018-09-22T05:34:32.779Z,1013.65
2018-09-22T05:35:32.861Z,1013.65
2018-09-22T05:36:32.827Z,1013.67
2018-09-22T05:37:32.849Z,1013.69
2018-09-22T05:38:32.872Z,1013.66
2018-09-22T05:39:32.898Z,1013.70
2018-09-22T05:40:32.922Z,1013.68
2018-09-22T05:41:32.993Z,1013.67
2018-09-22T05:42:32.970Z,1013.65
2018-09-22T05:43:32.996Z,1013.69
2018-09-22T05:44:33.017Z,1013.74
2018-09-22T05:45:33.041Z,1013.78
2018-09-22T05:46:33.069Z,1013.85
2018-09-22T05:47:33.096Z,1013.81
2018-09-22T05:48:33.113Z,1013.87
2018-09-22T05:49:33.140Z,1013.83
2018-09-22T05:50:33.161Z,1013.82
2018-09-22T05:51:33.185Z,1013.86
2018-09-22T05:52:33.210Z,1013.91
2018-09-22T05:53:33.235Z,1013.86
2018-09-22T05:54:33.256Z,1013.84
2018-09-22T05:55:33.281Z,1013.93
2018-09-22T05:56:33.305Z,1013.89
2018-09-22T05:57:33.331Z,1013.84
2018-09-22T05:58:33.359Z,1013.87
2018-09-22T05:59:33.382Z,1013.84
2018-09-22T06:00:33.403Z,1013.89
2018-09-22T06:01:33.427Z,1013.88
2018-09-22T06:02:33.451Z,1013.90
2018-09-22T06:03:33.517Z,1013.84
2018-09-22T06:04:33.508Z,1013.89
2018-09-22T06:05:33.526Z,1013.82
2018-09-22T06:06:33.550Z,1013.86
2018-09-22T06:07:33.576Z,1013.87
2018-09-22T06:08:33.601Z,1013.86
2018-09-22T06:09:33.670Z,1013.88
2018-09-22T06:10:33.652Z,1013.94
2018-09-22T06:11:33.676Z,1013.89
2018-09-22T06:12:33.701Z,1013.94
2018-09-22T06:13:33.728Z,1013.95
2018-09-22T06:14:33.754Z,1013.94
2018-09-22T06:15:33.779Z,1014.00
2018-09-22T06:16:33.808Z,1014.01
2018-09-22T06:17:33.831Z,1014.07
2018-09-22T06:18:33.855Z,1014.08
2018-09-22T06:19:33.882Z,1014.06
2018-09-22T06:20:33.906Z,1014.03
2018-09-22T06:21:33.931Z,1013.99
2018-09-22T06:22:33.955Z,1014.02
2018-09-22T06:23:34.036Z,1014.06
2018-09-22T06:24:34.007Z,1014.06
2018-09-22T06:25:34.033Z,1014.04
2018-09-22T06:26:34.057Z,1014.01
2018-09-22T06:27:34.082Z,1014.03
2018-09-22T06:28:34.108Z,1014.07
2018-09-22T06:29:34.137Z,1014.01
2018-09-22T06:30:34.158Z,1014.09
2018-09-22T06:31:34.186Z,1014.05
2018-09-22T06:32:34.209Z,1014.14
2018-09-22T06:33:34.234Z,1014.09
2018-09-22T06:34:34.259Z,1014.08
2018-09-22T06:35:34.284Z,1014.03
2018-09-22T06:36:34.313Z,1014.06
2018-09-22T06:37:34.449Z,1014.06
2018-09-22T06:38:34.359Z,1014.12
2018-09-22T06:39:34.385Z,1014.05
2018-09-22T06:40:34.411Z,1014.07
2018-09-22T06:41:34.480Z,1014.11
2018-09-22T06:42:34.460Z,1014.08
2018-09-22T06:43:34.489Z,1014.11
2018-09-22T06:44:34.510Z,1014.16
2018-09-22T06:45:34.535Z,1014.18
2018-09-22T06:46:34.559Z,1014.19
2018-09-22T06:47:34.587Z,1014.13
2018-09-22T06:48:34.611Z,1014.17
2018-09-22T06:49:34.638Z,1014.19
2018-09-22T06:50:34.660Z,1014.17
2018-09-22T06:51:34.685Z,1014.15
2018-09-22T06:52:34.711Z,1014.17
2018-09-22T06:53:34.738Z,1014.20
2018-09-22T06:54:34.760Z,1014.18
2018-09-22T06:55:34.787Z,1014.17
2018-09-22T06:56:34.810Z,1014.17
2018-09-22T06:57:34.838Z,1014.20
2018-09-22T06:58:34.862Z,1014.18
2018-09-22T06:59:34.886Z,1014.16
2018-09-22T07:00:34.912Z,1014.18
2018-09-22T07:01:34.936Z,1014.27
2018-09-22T07:02:34.963Z,1014.25
2018-09-22T07:03:34.987Z,1014.23
2018-09-22T07:04:35.012Z,1014.23
2018-09-22T07:05:35.039Z,1014.21
2018-09-22T07:06:35.062Z,1014.29
2018-09-22T07:07:35.087Z,1014.24
2018-09-22T07:08:35.112Z,1014.25
2018-09-22T07:09:35.137Z,1014.30
2018-09-22T07:10:35.165Z,1014.30
2018-09-22T07:11:35.194Z,1014.35
2018-09-22T07:12:35.212Z,1014.29
2018-09-22T07:13:35.237Z,1014.28
2018-09-22T07:14:35.266Z,1014.26
2018-09-22T07:15:35.288Z,1014.27
2018-09-22T07:16:35.312Z,1014.34
2018-09-22T07:17:35.338Z,1014.36
2018-09-22T07:18:35.363Z,1014.38
2018-09-22T07:19:35.451Z,1014.41
2018-09-22T07:20:35.417Z,1014.41
2018-09-22T07:21:35.439Z,1014.39
2018-09-22T07:22:35.465Z,1014.40
2018-09-22T07:23:35.489Z,1014.37
2018-09-22T07:24:35.515Z,1014.41
2018-09-22T07:25:35.542Z,1014.44
2018-09-22T07:26:35.564Z,1014.46
2018-09-22T07:27:35.597Z,1014.40
2018-09-22T07:28:35.617Z,1014.36
2018-09-22T07:29:35.645Z,1014.41
2018-09-22T07:30:35.667Z,1014.41
2018-09-22T07:31:35.694Z,1014.43
2018-09-22T07:32:35.718Z,1014.40
2018-09-22T07:33:35.743Z,1014.38
2018-09-22T07:34:35.767Z,1014.42
2018-09-22T07:35:35.793Z,1014.43
2018-09-22T07:36:35.819Z,1014.42
2018-09-22T07:37:35.844Z,1014.40
2018-09-22T07:38:35.868Z,1014.37
2018-09-22T07:39:35.894Z,1014.40
2018-09-22T07:40:35.919Z,1014.36
2018-09-22T07:41:35.944Z,1014.40
2018-09-22T07:42:35.969Z,1014.39
2018-09-22T07:43:35.999Z,1014.38
2018-09-22T07:44:36.020Z,1014.40
2018-09-22T07:45:36.056Z,1014.41
2018-09-22T07:46:36.076Z,1014.40
2018-09-22T07:47:36.099Z,1014.44
2018-09-22T07:48:36.122Z,1014.44
2018-09-22T07:49:36.147Z,1014.43
2018-09-22T07:50:36.174Z,1014.42
2018-09-22T07:51:36.197Z,1014.47
2018-09-22T07:52:36.223Z,1014.52
2018-09-22T07:53:36.248Z,1014.47
2018-09-22T07:54:36.272Z,1014.45
2018-09-22T07:55:36.300Z,1014.48
2018-09-22T07:56:36.328Z,1014.48
2018-09-22T07:57:36.350Z,1014.49
2018-09-22T07:58:36.383Z,1014.42
2018-09-22T07:59:36.398Z,1014.48
2018-09-22T08:00:36.432Z,1014.47
2018-09-22T08:01:36.453Z,1014.55
2018-09-22T08:02:36.475Z,1014.51
2018-09-22T08:03:36.500Z,1014.45
2018-09-22T08:04:36.527Z,1014.54
2018-09-22T08:05:36.552Z,1014.57
2018-09-22T08:06:36.576Z,1014.58
2018-09-22T08:07:36.605Z,1014.65
2018-09-22T08:08:36.627Z,1014.59
2018-09-22T08:09:36.652Z,1014.59
2018-09-22T08:10:36.677Z,1014.56
2018-09-22T08:11:36.717Z,1014.60
2018-09-22T08:12:36.728Z,1014.58
2018-09-22T08:13:36.754Z,1014.58
2018-09-22T08:14:36.779Z,1014.57
2018-09-22T08:15:36.810Z,1014.60
2018-09-22T08:16:36.828Z,1014.63
2018-09-22T08:17:36.860Z,1014.62
2018-09-22T08:18:36.879Z,1014.60
2018-09-22T08:19:36.904Z,1014.61
2018-09-22T08:20:36.944Z,1014.70
2018-09-22T08:21:36.960Z,1014.67
2018-09-22T08:22:36.979Z,1014.70
2018-09-22T08:23:37.005Z,1014.68
2018-09-22T08:24:37.031Z,1014.66
2018-09-22T08:25:37.058Z,1014.66
2018-09-22T08:26:37.081Z,1014.61
2018-09-22T08:27:37.107Z,1014.65
2018-09-22T08:28:37.132Z,1014.59
2018-09-22T08:29:37.159Z,1014.61
2018-09-22T08:30:37.181Z,1014.64
2018-09-22T08:31:37.209Z,1014.64
2018-09-22T08:32:37.232Z,1014.66
2018-09-22T08:33:37.276Z,1014.69
2018-09-22T08:34:37.283Z,1014.67
2018-09-22T08:35:37.308Z,1014.69
2018-09-22T08:36:37.544Z,1014.71
2018-09-22T08:37:37.359Z,1014.67
2018-09-22T08:38:37.383Z,1014.70
2018-09-22T08:39:37.411Z,1014.70
2018-09-22T08:40:37.434Z,1014.72
2018-09-22T08:41:37.463Z,1014.71
2018-09-22T08:42:37.484Z,1014.69
2018-09-22T08:43:37.511Z,1014.73
2018-09-22T08:44:37.536Z,1014.71
2018-09-22T08:45:37.564Z,1014.73
2018-09-22T08:46:37.586Z,1014.71
2018-09-22T08:47:37.645Z,1014.70
2018-09-22T08:48:37.636Z,1014.78
2018-09-22T08:49:37.681Z,1014.75
2018-09-22T08:50:37.687Z,1014.77
2018-09-22T08:51:37.718Z,1014.87
2018-09-22T08:52:37.737Z,1014.82
2018-09-22T08:53:37.764Z,1014.79
2018-09-22T08:54:37.787Z,1014.78
2018-09-22T08:55:37.813Z,1014.80
2018-09-22T08:56:37.839Z,1014.82
2018-09-22T08:57:37.865Z,1014.92
2018-09-22T08:58:37.889Z,1014.86
2018-09-22T08:59:37.916Z,1014.84
2018-09-22T09:00:37.939Z,1014.86
2018-09-22T09:01:37.966Z,1014.82
2018-09-22T09:02:37.989Z,1014.83
2018-09-22T09:03:38.017Z,1014.80
2018-09-22T09:04:38.043Z,1014.78
2018-09-22T09:05:38.067Z,1014.78
2018-09-22T09:06:38.092Z,1014.75
2018-09-22T09:07:38.117Z,1014.77
2018-09-22T09:08:38.142Z,1014.76
2018-09-22T09:09:38.170Z,1014.83
2018-09-22T09:10:38.192Z,1014.73
2018-09-22T09:11:38.219Z,1014.74
2018-09-22T09:12:38.247Z,1014.85
2018-09-22T09:13:38.300Z,1014.76
2018-09-22T09:14:38.363Z,1014.77
2018-09-22T09:15:38.320Z,1014.79
2018-09-22T09:16:38.346Z,1014.81
2018-09-22T09:17:38.379Z,1014.82
2018-09-22T09:18:38.396Z,1014.80
2018-09-22T09:19:38.422Z,1014.78
2018-09-22T09:20:38.447Z,1014.83
2018-09-22T09:21:38.474Z,1014.77
2018-09-22T09:22:38.498Z,1014.74
2018-09-22T09:23:38.523Z,1014.73
2018-09-22T09:24:38.550Z,1014.77
2018-09-22T09:25:38.576Z,1014.84
2018-09-22T09:26:38.599Z,1014.77
2018-09-22T09:27:38.648Z,1014.82
2018-09-22T09:28:38.651Z,1014.76
2018-09-22T09:29:38.677Z,1014.78
2018-09-22T09:30:38.701Z,1014.80
2018-09-22T09:31:38.729Z,1014.82
2018-09-22T09:32:38.753Z,1014.83
2018-09-22T09:33:38.779Z,1014.84
2018-09-22T09:34:38.803Z,1014.81
2018-09-22T09:35:38.831Z,1014.80
2018-09-22T09:36:38.856Z,1014.91
2018-09-22T09:37:38.881Z,1014.80
2018-09-22T09:38:38.906Z,1014.85
2018-09-22T09:39:38.932Z,1014.80
2018-09-22T09:40:38.957Z,1014.79
2018-09-22T09:41:38.983Z,1014.74
2018-09-22T09:42:39.009Z,1014.83
2018-09-22T09:43:39.068Z,1014.82
2018-09-22T09:44:39.061Z,1014.86
2018-09-22T09:45:39.085Z,1014.82
2018-09-22T09:46:39.116Z,1014.80
2018-09-22T09:47:39.135Z,1014.83
2018-09-22T09:48:39.161Z,1014.84
2018-09-22T09:49:39.187Z,1014.77
2018-09-22T09:50:39.213Z,1014.74
2018-09-22T09:51:39.240Z,1014.73
2018-09-22T09:52:39.264Z,1014.72
2018-09-22T09:53:39.289Z,1014.69
2018-09-22T09:54:39.324Z,1014.69
2018-09-22T09:55:39.344Z,1014.70
2018-09-22T09:56:39.365Z,1014.68
2018-09-22T09:57:39.392Z,1014.77
2018-09-22T09:58:39.416Z,1014.68
2018-09-22T09:59:39.442Z,1014.69
2018-09-22T10:00:39.469Z,1014.66
2018-09-22T10:01:39.494Z,1014.72
2018-09-22T10:02:39.521Z,1014.67
2018-09-22T10:03:39.544Z,1014.61
2018-09-22T10:04:39.570Z,1014.71
2018-09-22T10:05:39.596Z,1014.63
2018-09-22T10:06:39.621Z,1014.68
2018-09-22T10:07:39.646Z,1014.62
2018-09-22T10:08:39.673Z,1014.67
2018-09-22T10:09:39.699Z,1014.67
2018-09-22T10:10:39.722Z,1014.69
2018-09-22T10:11:39.788Z,1014.66
2018-09-22T10:12:39.776Z,1014.66
2018-09-22T10:13:39.802Z,1014.69
2018-09-22T10:14:39.825Z,1014.64
2018-09-22T10:15:39.853Z,1014.59
2018-09-22T10:16:39.877Z,1014.67
2018-09-22T10:17:39.903Z,1014.67
2018-09-22T10:18:39.929Z,1014.63
2018-09-22T10:19:39.955Z,1014.69
2018-09-22T10:20:39.983Z,1014.70
2018-09-22T10:21:40.006Z,1014.71
2018-09-22T10:22:40.031Z,1014.71
2018-09-22T10:23:40.057Z,1014.71
2018-09-22T10:24:40.083Z,1014.70
2018-09-22T10:25:40.107Z,1014.71
2018-09-22T10:26:40.134Z,1014.71
2018-09-22T10:27:40.161Z,1014.71
2018-09-22T10:28:40.235Z,1014.83
2018-09-22T10:29:40.212Z,1014.74
2018-09-22T10:30:40.237Z,1014.65
2018-09-22T10:31:40.262Z,1014.57
2018-09-22T10:32:40.288Z,1014.55
2018-09-22T10:33:40.313Z,1014.53
2018-09-22T10:34:40.339Z,1014.51
2018-09-22T10:35:40.366Z,1014.46
2018-09-22T10:36:40.394Z,1014.46
2018-09-22T10:37:40.417Z,1014.47
2018-09-22T10:38:40.442Z,1014.47
2018-09-22T10:39:40.507Z,1014.56
2018-09-22T10:40:40.496Z,1014.47
2018-09-22T10:41:40.520Z,1014.49
2018-09-22T10:42:40.547Z,1014.60
2018-09-22T10:43:40.571Z,1014.55
2018-09-22T10:44:40.599Z,1014.54
2018-09-22T10:45:40.624Z,1014.56
2018-09-22T10:46:40.649Z,1014.57
2018-09-22T10:47:40.674Z,1014.56
2018-09-22T10:48:40.701Z,1014.57
2018-09-22T10:49:40.726Z,1014.65
2018-09-22T10:50:40.751Z,1014.59
2018-09-22T10:51:40.777Z,1014.68
2018-09-22T10:52:40.853Z,1014.63
2018-09-22T10:53:40.830Z,1014.63
2018-09-22T10:54:40.856Z,1014.69
2018-09-22T10:55:40.891Z,1014.60
2018-09-22T10:56:40.906Z,1014.57
2018-09-22T10:57:40.932Z,1014.62
2018-09-22T10:58:40.957Z,1014.54
2018-09-22T10:59:40.984Z,1014.59
2018-09-22T11:00:41.011Z,1014.61
2018-09-22T11:01:41.035Z,1014.59
2018-09-22T11:02:41.060Z,1014.58
2018-09-22T11:03:41.086Z,1014.56
2018-09-22T11:04:41.130Z,1014.54
2018-09-22T11:05:41.138Z,1014.51
2018-09-22T11:06:41.163Z,1014.56
2018-09-22T11:07:41.189Z,1014.56
2018-09-22T11:08:41.215Z,1014.49
2018-09-22T11:09:41.242Z,1014.54
2018-09-22T11:10:41.268Z,1014.52
2018-09-22T11:11:41.292Z,1014.47
2018-09-22T11:12:41.318Z,1014.50
2018-09-22T11:13:41.344Z,1014.52
2018-09-22T11:14:41.369Z,1014.50
2018-09-22T11:15:41.398Z,1014.45
2018-09-22T11:16:41.423Z,1014.46
2018-09-22T11:17:41.448Z,1014.50
2018-09-22T11:18:41.472Z,1014.41
2018-09-22T11:19:41.498Z,1014.39
2018-09-22T11:20:41.524Z,1014.39
2018-09-22T11:21:41.553Z,1014.42
2018-09-22T11:22:41.574Z,1014.43
2018-09-22T11:23:41.600Z,1014.37
2018-09-22T11:24:41.627Z,1014.42
2018-09-22T11:25:41.655Z,1014.42
2018-09-22T11:26:41.678Z,1014.45
2018-09-22T11:27:41.704Z,1014.47
2018-09-22T11:28:41.729Z,1014.51
2018-09-22T11:29:41.757Z,1014.52
2018-09-22T11:30:41.780Z,1014.56
2018-09-22T11:31:41.807Z,1014.58
2018-09-22T11:32:41.890Z,1014.66
2018-09-22T11:33:41.858Z,1014.63
2018-09-22T11:34:41.885Z,1014.61
2018-09-22T11:35:41.909Z,1014.58
2018-09-22T11:36:41.937Z,1014.60
2018-09-22T11:37:41.968Z,1014.55
2018-09-22T11:38:41.988Z,1014.50
2018-09-22T11:39:42.012Z,1014.41
2018-09-22T11:40:42.041Z,1014.27
2018-09-22T11:41:42.065Z,1014.35
2018-09-22T11:42:42.090Z,1014.42
2018-09-22T11:43:42.117Z,1014.45
2018-09-22T11:44:42.142Z,1014.47
2018-09-22T11:45:42.168Z,1014.45
2018-09-22T11:46:42.194Z,1014.32
2018-09-22T11:47:42.219Z,1014.34
2018-09-22T11:48:42.245Z,1014.27
2018-09-22T11:49:42.272Z,1014.35
2018-09-22T11:50:42.296Z,1014.49
2018-09-22T11:51:42.328Z,1014.55
2018-09-22T11:52:42.348Z,1014.57
2018-09-22T11:53:42.376Z,1014.58
2018-09-22T11:54:42.401Z,1014.49
2018-09-22T11:55:42.429Z,1014.44
2018-09-22T11:56:42.451Z,1014.29
2018-09-22T11:57:42.477Z,1014.30
2018-09-22T11:58:42.503Z,1014.37
2018-09-22T11:59:42.529Z,1014.43
2018-09-22T12:00:42.555Z,1014.46
2018-09-22T12:01:42.581Z,1014.44
2018-09-22T12:02:42.606Z,1014.37
2018-09-22T12:03:42.632Z,1014.31
2018-09-22T12:04:42.659Z,1014.34
2018-09-22T12:05:42.688Z,1014.36